NAL605 KIND-KJQF
Flight info
| Callsign | NAL605 |
|---|---|
| Flight time | 1h 7m |
| Altitude | FL330 |
| Route | MAREO5 BDOCK OHIOS PSK HENBY NASCR1 |
| Aircraft | B739/L-L/N |
Departure
| Time | 2026-04-23 09:23 |
|---|---|
| Airport | Indianapolis International Airport (KIND) |
Arrival
| Time | 2026-04-23 10:30 |
|---|---|
| Airport | Concord-Padgett Regional Airport (KJQF) |
| Time | Latitude | Longitude | Altitude | Speed | Heading |
|---|---|---|---|---|---|
| 2026-04-23 09:15 | 39.71600 | -86.28244 | 808 ft | 0 kts | 226° |
| 2026-04-23 09:16 | 39.71599 | -86.28244 | 808 ft | 0 kts | 226° |
| 2026-04-23 09:16 | 39.71599 | -86.28245 | 808 ft | 0 kts | 226° |
| 2026-04-23 09:17 | 39.71558 | -86.28300 | 808 ft | 18 kts | 226° |
| 2026-04-23 09:17 | 39.71436 | -86.28464 | 808 ft | 28 kts | 226° |
| 2026-04-23 09:17 | 39.71306 | -86.28639 | 808 ft | 26 kts | 226° |
| 2026-04-23 09:18 | 39.71182 | -86.28806 | 808 ft | 25 kts | 226° |
| 2026-04-23 09:18 | 39.71061 | -86.28965 | 808 ft | 24 kts | 225° |
| 2026-04-23 09:18 | 39.70945 | -86.29118 | 808 ft | 23 kts | 225° |
| 2026-04-23 09:18 | 39.70830 | -86.29258 | 808 ft | 22 kts | 210° |
| 2026-04-23 09:19 | 39.70694 | -86.29330 | 808 ft | 21 kts | 212° |
| 2026-04-23 09:19 | 39.70587 | -86.29458 | 808 ft | 22 kts | 225° |
| 2026-04-23 09:19 | 39.70475 | -86.29605 | 808 ft | 23 kts | 225° |
| 2026-04-23 09:19 | 39.70366 | -86.29747 | 808 ft | 22 kts | 225° |
| 2026-04-23 09:20 | 39.70262 | -86.29882 | 808 ft | 21 kts | 225° |
| 2026-04-23 09:20 | 39.70162 | -86.30013 | 808 ft | 20 kts | 225° |
| 2026-04-23 09:20 | 39.70067 | -86.30137 | 808 ft | 19 kts | 225° |
| 2026-04-23 09:20 | 39.69988 | -86.30240 | 808 ft | 14 kts | 225° |
| 2026-04-23 09:21 | 39.69980 | -86.30338 | 808 ft | 11 kts | 312° |
| 2026-04-23 09:21 | 39.69985 | -86.30345 | 808 ft | 0 kts | 314° |
| 2026-04-23 09:21 | 39.70012 | -86.30379 | 808 ft | 12 kts | 324° |
| 2026-04-23 09:21 | 39.70084 | -86.30365 | 808 ft | 11 kts | 38° |
| 2026-04-23 09:22 | 39.70133 | -86.30304 | 808 ft | 0 kts | 44° |
| 2026-04-23 09:22 | 39.70134 | -86.30302 | 808 ft | 3 kts | 44° |
| 2026-04-23 09:22 | 39.70341 | -86.30038 | 808 ft | 82 kts | 44° |
| 2026-04-23 09:22 | 39.70932 | -86.29283 | 808 ft | 155 kts | 44° |
| 2026-04-23 09:23 | 39.71776 | -86.28197 | 1380 ft | 175 kts | 46° |
| 2026-04-23 09:23 | 39.72597 | -86.27016 | 2387 ft | 178 kts | 48° |
| 2026-04-23 09:23 | 39.73438 | -86.25797 | 3054 ft | 188 kts | 48° |
| 2026-04-23 09:23 | 39.74345 | -86.24484 | 3522 ft | 206 kts | 48° |
| 2026-04-23 09:24 | 39.75358 | -86.23017 | 3973 ft | 230 kts | 48° |
| 2026-04-23 09:24 | 39.76464 | -86.21375 | 4535 ft | 252 kts | 52° |
| 2026-04-23 09:24 | 39.77180 | -86.19230 | 5222 ft | 266 kts | 76° |
| 2026-04-23 09:24 | 39.77457 | -86.16842 | 6165 ft | 271 kts | 83° |
| 2026-04-23 09:25 | 39.77681 | -86.14401 | 7129 ft | 274 kts | 83° |
| 2026-04-23 09:25 | 39.77952 | -86.11926 | 8000 ft | 279 kts | 81° |
| 2026-04-23 09:25 | 39.78252 | -86.09432 | 8886 ft | 283 kts | 81° |
| 2026-04-23 09:25 | 39.78560 | -86.06891 | 9763 ft | 286 kts | 81° |
| 2026-04-23 09:26 | 39.78875 | -86.04306 | 10550 ft | 296 kts | 81° |
| 2026-04-23 09:26 | 39.79206 | -86.01585 | 11081 ft | 313 kts | 81° |
| 2026-04-23 09:26 | 39.79554 | -85.98720 | 11640 ft | 329 kts | 81° |
| 2026-04-23 09:26 | 39.79918 | -85.95725 | 12181 ft | 345 kts | 81° |
| 2026-04-23 09:27 | 39.80310 | -85.92575 | 12701 ft | 361 kts | 81° |
| 2026-04-23 09:27 | 39.80710 | -85.89278 | 13194 ft | 377 kts | 81° |
| 2026-04-23 09:27 | 39.81121 | -85.85851 | 13727 ft | 390 kts | 81° |
| 2026-04-23 09:27 | 39.81540 | -85.82345 | 14433 ft | 397 kts | 81° |
| 2026-04-23 09:28 | 39.81964 | -85.78777 | 15220 ft | 401 kts | 81° |
| 2026-04-23 09:28 | 39.82402 | -85.75171 | 15983 ft | 406 kts | 81° |
| 2026-04-23 09:28 | 39.82835 | -85.71543 | 16720 ft | 410 kts | 81° |
| 2026-04-23 09:28 | 39.83271 | -85.67853 | 17438 ft | 415 kts | 81° |
| 2026-04-23 09:29 | 39.83711 | -85.64119 | 18135 ft | 419 kts | 81° |
| 2026-04-23 09:29 | 39.84156 | -85.60351 | 18809 ft | 423 kts | 81° |
| 2026-04-23 09:29 | 39.84606 | -85.56552 | 19462 ft | 428 kts | 81° |
| 2026-04-23 09:29 | 39.85054 | -85.52723 | 20096 ft | 432 kts | 81° |
| 2026-04-23 09:30 | 39.85506 | -85.48843 | 20699 ft | 436 kts | 81° |
| 2026-04-23 09:30 | 39.85961 | -85.44928 | 21271 ft | 439 kts | 81° |
| 2026-04-23 09:30 | 39.86418 | -85.40981 | 21815 ft | 443 kts | 81° |
| 2026-04-23 09:30 | 39.86879 | -85.37016 | 22329 ft | 447 kts | 81° |
| 2026-04-23 09:31 | 39.87341 | -85.33004 | 22819 ft | 450 kts | 81° |
| 2026-04-23 09:31 | 39.87806 | -85.28966 | 23282 ft | 453 kts | 81° |
| 2026-04-23 09:31 | 39.88115 | -85.26263 | 23577 ft | 455 kts | 81° |
| 2026-04-23 09:31 | 39.88555 | -85.20787 | 24134 ft | 459 kts | 86° |
| 2026-04-23 09:32 | 39.88675 | -85.18009 | 24402 ft | 461 kts | 86° |
| 2026-04-23 09:32 | 39.88887 | -85.13843 | 24776 ft | 463 kts | 86° |
| 2026-04-23 09:32 | 39.89116 | -85.09662 | 25134 ft | 466 kts | 86° |
| 2026-04-23 09:32 | 39.89346 | -85.05443 | 25473 ft | 468 kts | 86° |
| 2026-04-23 09:33 | 39.89575 | -85.01203 | 25800 ft | 471 kts | 86° |
| 2026-04-23 09:33 | 39.89802 | -84.96961 | 26111 ft | 473 kts | 86° |
| 2026-04-23 09:33 | 39.90030 | -84.92689 | 26412 ft | 475 kts | 86° |
| 2026-04-23 09:33 | 39.90257 | -84.88390 | 26701 ft | 477 kts | 86° |
| 2026-04-23 09:34 | 39.90484 | -84.84071 | 26977 ft | 479 kts | 86° |
| 2026-04-23 09:34 | 39.90710 | -84.79734 | 27238 ft | 481 kts | 86° |
| 2026-04-23 09:34 | 39.90934 | -84.75398 | 27493 ft | 483 kts | 86° |
| 2026-04-23 09:34 | 39.91158 | -84.71036 | 27812 ft | 482 kts | 86° |
| 2026-04-23 09:35 | 39.91380 | -84.66699 | 28147 ft | 482 kts | 86° |
| 2026-04-23 09:35 | 39.91600 | -84.62347 | 28476 ft | 481 kts | 86° |
| 2026-04-23 09:35 | 39.91818 | -84.58008 | 28797 ft | 480 kts | 86° |
| 2026-04-23 09:35 | 39.92034 | -84.53667 | 29113 ft | 480 kts | 86° |
| 2026-04-23 09:36 | 39.92249 | -84.49332 | 29422 ft | 479 kts | 86° |
| 2026-04-23 09:36 | 39.92460 | -84.45027 | 29722 ft | 479 kts | 86° |
| 2026-04-23 09:36 | 39.92671 | -84.40705 | 30020 ft | 478 kts | 86° |
| 2026-04-23 09:36 | 39.92880 | -84.36381 | 30310 ft | 477 kts | 86° |
| 2026-04-23 09:37 | 39.93087 | -84.32069 | 30596 ft | 477 kts | 86° |
| 2026-04-23 09:37 | 39.93089 | -84.27763 | 30823 ft | 477 kts | 96° |
| 2026-04-23 09:37 | 39.92293 | -84.23606 | 31097 ft | 475 kts | 110° |
| 2026-04-23 09:37 | 39.90861 | -84.19731 | 31324 ft | 475 kts | 122° |
| 2026-04-23 09:38 | 39.88805 | -84.16372 | 31583 ft | 474 kts | 133° |
| 2026-04-23 09:38 | 39.86503 | -84.13327 | 31830 ft | 474 kts | 134° |
| 2026-04-23 09:38 | 39.84248 | -84.10193 | 32077 ft | 474 kts | 132° |
| 2026-04-23 09:38 | 39.82034 | -84.07025 | 32326 ft | 473 kts | 132° |
| 2026-04-23 09:39 | 39.79815 | -84.03868 | 32577 ft | 473 kts | 132° |
| 2026-04-23 09:39 | 39.77603 | -84.00726 | 32828 ft | 472 kts | 132° |
| 2026-04-23 09:39 | 39.75386 | -83.97583 | 33008 ft | 472 kts | 132° |
| 2026-04-23 09:40 | 39.70954 | -83.91306 | 33002 ft | 471 kts | 132° |
| 2026-04-23 09:40 | 39.66528 | -83.85051 | 33001 ft | 471 kts | 133° |
| 2026-04-23 09:41 | 39.62095 | -83.78800 | 33001 ft | 471 kts | 133° |
| 2026-04-23 09:41 | 39.57663 | -83.72561 | 33000 ft | 471 kts | 133° |
| 2026-04-23 09:42 | 39.53221 | -83.66323 | 33000 ft | 471 kts | 133° |
| 2026-04-23 09:42 | 39.48782 | -83.60101 | 33000 ft | 471 kts | 133° |
| 2026-04-23 09:43 | 39.44333 | -83.53878 | 33001 ft | 471 kts | 133° |
| 2026-04-23 09:43 | 39.39891 | -83.47676 | 33001 ft | 471 kts | 133° |
| 2026-04-23 09:44 | 39.35435 | -83.41468 | 33001 ft | 471 kts | 133° |
| 2026-04-23 09:44 | 39.30983 | -83.35278 | 33000 ft | 471 kts | 133° |
| 2026-04-23 09:45 | 39.26520 | -83.29085 | 33000 ft | 471 kts | 133° |
| 2026-04-23 09:45 | 39.22063 | -83.22912 | 33001 ft | 471 kts | 133° |
| 2026-04-23 09:46 | 39.17591 | -83.16732 | 33001 ft | 471 kts | 133° |
| 2026-04-23 09:46 | 39.13125 | -83.10572 | 33001 ft | 471 kts | 133° |
| 2026-04-23 09:47 | 39.08647 | -83.04407 | 33000 ft | 471 kts | 133° |
| 2026-04-23 09:47 | 39.04175 | -82.98264 | 33000 ft | 471 kts | 133° |
| 2026-04-23 09:48 | 38.99690 | -82.92114 | 33000 ft | 471 kts | 133° |
| 2026-04-23 09:48 | 38.95210 | -82.85984 | 33000 ft | 471 kts | 133° |
| 2026-04-23 09:49 | 38.90721 | -82.79853 | 33001 ft | 471 kts | 133° |
| 2026-04-23 09:49 | 38.86233 | -82.73737 | 33001 ft | 471 kts | 133° |
| 2026-04-23 09:50 | 38.81735 | -82.67620 | 33001 ft | 472 kts | 134° |
| 2026-04-23 09:50 | 38.76903 | -82.61963 | 33000 ft | 472 kts | 138° |
| 2026-04-23 09:51 | 38.72055 | -82.56299 | 33000 ft | 471 kts | 137° |
| 2026-04-23 09:51 | 38.67223 | -82.50654 | 33001 ft | 472 kts | 137° |
| 2026-04-23 09:52 | 38.62373 | -82.45001 | 33001 ft | 472 kts | 137° |
| 2026-04-23 09:52 | 38.57526 | -82.39362 | 33001 ft | 472 kts | 137° |
| 2026-04-23 09:53 | 38.52672 | -82.33724 | 33001 ft | 472 kts | 137° |
| 2026-04-23 09:53 | 38.47826 | -82.28107 | 33000 ft | 472 kts | 137° |
| 2026-04-23 09:54 | 38.42965 | -82.22483 | 33000 ft | 472 kts | 137° |
| 2026-04-23 09:54 | 38.38111 | -82.16878 | 33001 ft | 472 kts | 138° |
| 2026-04-23 09:55 | 38.33244 | -82.11270 | 33001 ft | 472 kts | 138° |
| 2026-04-23 09:55 | 38.28386 | -82.05681 | 33001 ft | 472 kts | 138° |
| 2026-04-23 09:56 | 38.23513 | -82.00086 | 33001 ft | 472 kts | 138° |
| 2026-04-23 09:56 | 38.18646 | -81.94508 | 33000 ft | 472 kts | 138° |
| 2026-04-23 09:57 | 38.13769 | -81.88930 | 33000 ft | 472 kts | 138° |
| 2026-04-23 09:57 | 38.08899 | -81.83370 | 33001 ft | 472 kts | 138° |
| 2026-04-23 09:58 | 38.04018 | -81.77808 | 33001 ft | 472 kts | 138° |
| 2026-04-23 09:58 | 37.99141 | -81.72260 | 33001 ft | 472 kts | 138° |
| 2026-04-23 09:59 | 37.94255 | -81.66712 | 33001 ft | 472 kts | 138° |
| 2026-04-23 09:59 | 37.89374 | -81.61182 | 33000 ft | 472 kts | 138° |
| 2026-04-23 10:00 | 37.84484 | -81.55650 | 33001 ft | 472 kts | 138° |
| 2026-04-23 10:00 | 37.79594 | -81.50130 | 33001 ft | 472 kts | 138° |
| 2026-04-23 10:01 | 37.74696 | -81.44610 | 33000 ft | 472 kts | 138° |
| 2026-04-23 10:01 | 37.69806 | -81.39109 | 33000 ft | 472 kts | 138° |
| 2026-04-23 10:02 | 37.64902 | -81.33603 | 33001 ft | 472 kts | 138° |
| 2026-04-23 10:02 | 37.60006 | -81.28117 | 33001 ft | 472 kts | 138° |
| 2026-04-23 10:03 | 37.55101 | -81.22629 | 33001 ft | 472 kts | 138° |
| 2026-04-23 10:03 | 37.50200 | -81.17157 | 33000 ft | 472 kts | 138° |
| 2026-04-23 10:04 | 37.45285 | -81.11679 | 33000 ft | 472 kts | 138° |
| 2026-04-23 10:04 | 37.40380 | -81.06221 | 33001 ft | 472 kts | 139° |
| 2026-04-23 10:05 | 37.35461 | -81.00759 | 33001 ft | 472 kts | 139° |
| 2026-04-23 10:05 | 37.30550 | -80.95315 | 33001 ft | 472 kts | 139° |
| 2026-04-23 10:06 | 37.25624 | -80.89864 | 33001 ft | 472 kts | 139° |
| 2026-04-23 10:06 | 37.20709 | -80.84436 | 33000 ft | 472 kts | 139° |
| 2026-04-23 10:07 | 37.15779 | -80.79001 | 33000 ft | 472 kts | 139° |
| 2026-04-23 10:07 | 37.10861 | -80.73589 | 33001 ft | 472 kts | 139° |
| 2026-04-23 10:08 | 37.06605 | -80.67367 | 33007 ft | 472 kts | 123° |
| 2026-04-23 10:08 | 37.03047 | -80.60494 | 33001 ft | 472 kts | 123° |
| 2026-04-23 10:09 | 36.97597 | -80.50261 | 33000 ft | 472 kts | 123° |
| 2026-04-23 10:09 | 36.93955 | -80.43436 | 33001 ft | 472 kts | 123° |
| 2026-04-23 10:10 | 36.90319 | -80.36635 | 33001 ft | 472 kts | 124° |
| 2026-04-23 10:10 | 36.86668 | -80.29819 | 32999 ft | 472 kts | 124° |
| 2026-04-23 10:11 | 36.84847 | -80.26425 | 32553 ft | 468 kts | 124° |
| 2026-04-23 10:11 | 36.83045 | -80.23070 | 31911 ft | 468 kts | 124° |
| 2026-04-23 10:11 | 36.81231 | -80.19695 | 31254 ft | 469 kts | 124° |
| 2026-04-23 10:11 | 36.79408 | -80.16307 | 30588 ft | 471 kts | 124° |
| 2026-04-23 10:12 | 36.77577 | -80.12909 | 29920 ft | 472 kts | 124° |
| 2026-04-23 10:12 | 36.75592 | -80.09674 | 29214 ft | 473 kts | 134° |
| 2026-04-23 10:12 | 36.72972 | -80.07177 | 28781 ft | 477 kts | 150° |
| 2026-04-23 10:12 | 36.69899 | -80.05641 | 28409 ft | 478 kts | 165° |
| 2026-04-23 10:13 | 36.66620 | -80.04980 | 27871 ft | 477 kts | 175° |
| 2026-04-23 10:13 | 36.63307 | -80.05088 | 27171 ft | 477 kts | 188° |
| 2026-04-23 10:13 | 36.60113 | -80.06031 | 26617 ft | 471 kts | 196° |
| 2026-04-23 10:13 | 36.56968 | -80.07145 | 26041 ft | 469 kts | 195° |
| 2026-04-23 10:14 | 36.53814 | -80.08145 | 25424 ft | 466 kts | 194° |
| 2026-04-23 10:14 | 36.50688 | -80.09107 | 24840 ft | 461 kts | 194° |
| 2026-04-23 10:14 | 36.47596 | -80.10065 | 24267 ft | 458 kts | 194° |
| 2026-04-23 10:14 | 36.44522 | -80.11018 | 23692 ft | 454 kts | 194° |
| 2026-04-23 10:15 | 36.41470 | -80.11964 | 23119 ft | 450 kts | 194° |
| 2026-04-23 10:15 | 36.38460 | -80.12897 | 22550 ft | 446 kts | 194° |
| 2026-04-23 10:15 | 36.35461 | -80.13825 | 21979 ft | 442 kts | 194° |
| 2026-04-23 10:15 | 36.32485 | -80.14745 | 21410 ft | 439 kts | 194° |
| 2026-04-23 10:16 | 36.29533 | -80.15658 | 20842 ft | 435 kts | 194° |
| 2026-04-23 10:16 | 36.26619 | -80.16557 | 20378 ft | 428 kts | 194° |
| 2026-04-23 10:16 | 36.23781 | -80.17433 | 20155 ft | 415 kts | 194° |
| 2026-04-23 10:16 | 36.20994 | -80.18292 | 19790 ft | 417 kts | 194° |
| 2026-04-23 10:17 | 36.18161 | -80.19165 | 19235 ft | 420 kts | 194° |
| 2026-04-23 10:17 | 36.15330 | -80.20037 | 18647 ft | 421 kts | 194° |
| 2026-04-23 10:17 | 36.12497 | -80.20908 | 18074 ft | 418 kts | 194° |
| 2026-04-23 10:17 | 36.09686 | -80.21773 | 17458 ft | 414 kts | 194° |
| 2026-04-23 10:18 | 36.06904 | -80.22627 | 16835 ft | 410 kts | 194° |
| 2026-04-23 10:18 | 36.04162 | -80.23469 | 16219 ft | 405 kts | 194° |
| 2026-04-23 10:18 | 36.01439 | -80.24304 | 15603 ft | 401 kts | 194° |
| 2026-04-23 10:18 | 35.98745 | -80.25130 | 14988 ft | 397 kts | 194° |
| 2026-04-23 10:19 | 35.96239 | -80.25898 | 14411 ft | 393 kts | 194° |
| 2026-04-23 10:19 | 35.93612 | -80.26702 | 13802 ft | 389 kts | 194° |
| 2026-04-23 10:19 | 35.90998 | -80.27501 | 13249 ft | 383 kts | 194° |
| 2026-04-23 10:19 | 35.88468 | -80.28388 | 12770 ft | 375 kts | 201° |
| 2026-04-23 10:20 | 35.86296 | -80.30055 | 12311 ft | 360 kts | 220° |
| 2026-04-23 10:20 | 35.84585 | -80.32197 | 11928 ft | 342 kts | 228° |
| 2026-04-23 10:20 | 35.83025 | -80.34309 | 11546 ft | 327 kts | 227° |
| 2026-04-23 10:20 | 35.81504 | -80.36301 | 11217 ft | 311 kts | 226° |
| 2026-04-23 10:21 | 35.80048 | -80.38184 | 10951 ft | 296 kts | 226° |
| 2026-04-23 10:21 | 35.78667 | -80.39965 | 10742 ft | 281 kts | 226° |
| 2026-04-23 10:21 | 35.77351 | -80.41660 | 10578 ft | 267 kts | 226° |
| 2026-04-23 10:21 | 35.76100 | -80.43268 | 10452 ft | 253 kts | 226° |
| 2026-04-23 10:22 | 35.74908 | -80.44801 | 10135 ft | 247 kts | 226° |
| 2026-04-23 10:22 | 35.73737 | -80.46307 | 9704 ft | 242 kts | 226° |
| 2026-04-23 10:22 | 35.72575 | -80.47801 | 9201 ft | 241 kts | 226° |
| 2026-04-23 10:22 | 35.71416 | -80.49290 | 8704 ft | 240 kts | 226° |
| 2026-04-23 10:23 | 35.70263 | -80.50771 | 8212 ft | 239 kts | 226° |
| 2026-04-23 10:23 | 35.69113 | -80.52246 | 7723 ft | 238 kts | 226° |
| 2026-04-23 10:23 | 35.67973 | -80.53708 | 7241 ft | 237 kts | 226° |
| 2026-04-23 10:23 | 35.66833 | -80.55169 | 6761 ft | 236 kts | 226° |
| 2026-04-23 10:24 | 35.65698 | -80.56621 | 6286 ft | 235 kts | 226° |
| 2026-04-23 10:24 | 35.64568 | -80.58066 | 5815 ft | 234 kts | 226° |
| 2026-04-23 10:24 | 35.63446 | -80.59498 | 5350 ft | 233 kts | 226° |
| 2026-04-23 10:24 | 35.62331 | -80.60921 | 4971 ft | 228 kts | 226° |
| 2026-04-23 10:25 | 35.61250 | -80.62299 | 4698 ft | 220 kts | 226° |
| 2026-04-23 10:25 | 35.60194 | -80.63644 | 4476 ft | 218 kts | 226° |
| 2026-04-23 10:25 | 35.59142 | -80.64982 | 4299 ft | 219 kts | 226° |
| 2026-04-23 10:25 | 35.58049 | -80.66266 | 4103 ft | 216 kts | 218° |
| 2026-04-23 10:26 | 35.56719 | -80.67009 | 3967 ft | 207 kts | 197° |
| 2026-04-23 10:26 | 35.55308 | -80.67327 | 3829 ft | 207 kts | 187° |
| 2026-04-23 10:26 | 35.53918 | -80.67524 | 3558 ft | 194 kts | 187° |
| 2026-04-23 10:26 | 35.52638 | -80.67766 | 3290 ft | 178 kts | 189° |
| 2026-04-23 10:27 | 35.51469 | -80.68031 | 3047 ft | 163 kts | 191° |
| 2026-04-23 10:27 | 35.50416 | -80.68279 | 2846 ft | 146 kts | 191° |
| 2026-04-23 10:27 | 35.49442 | -80.68505 | 2706 ft | 142 kts | 191° |
| 2026-04-23 10:27 | 35.48795 | -80.68653 | 2587 ft | 142 kts | 190° |
| 2026-04-23 10:28 | 35.47830 | -80.68870 | 2402 ft | 141 kts | 190° |
| 2026-04-23 10:28 | 35.46864 | -80.69087 | 2217 ft | 141 kts | 190° |
| 2026-04-23 10:28 | 35.45903 | -80.69304 | 2031 ft | 140 kts | 190° |
| 2026-04-23 10:28 | 35.44943 | -80.69521 | 1845 ft | 140 kts | 190° |
| 2026-04-23 10:29 | 35.43989 | -80.69737 | 1660 ft | 140 kts | 190° |
| 2026-04-23 10:29 | 35.43035 | -80.69953 | 1475 ft | 139 kts | 190° |
| 2026-04-23 10:29 | 35.42113 | -80.70161 | 1296 ft | 139 kts | 190° |
| 2026-04-23 10:29 | 35.41164 | -80.70375 | 1112 ft | 139 kts | 190° |
| 2026-04-23 10:30 | 35.40220 | -80.70588 | 929 ft | 138 kts | 190° |
| 2026-04-23 10:30 | 35.39276 | -80.70801 | 751 ft | 137 kts | 190° |
| 2026-04-23 10:30 | 35.38412 | -80.70998 | 701 ft | 91 kts | 191° |
| 2026-04-23 10:30 | 35.38115 | -80.71065 | 701 ft | 27 kts | 190° |
| 2026-04-23 10:31 | 35.37944 | -80.71103 | 701 ft | 15 kts | 190° |
| 2026-04-23 10:31 | 35.37868 | -80.71120 | 701 ft | 11 kts | 190° |
| 2026-04-23 10:31 | 35.37817 | -80.71175 | 701 ft | 11 kts | 262° |
| 2026-04-23 10:31 | 35.37857 | -80.71247 | 701 ft | 13 kts | 358° |
| 2026-04-23 10:32 | 35.37958 | -80.71228 | 701 ft | 16 kts | 11° |
| 2026-04-23 10:32 | 35.38082 | -80.71199 | 701 ft | 20 kts | 11° |
| 2026-04-23 10:32 | 35.38205 | -80.71171 | 701 ft | 11 kts | 11° |
| 2026-04-23 10:32 | 35.38277 | -80.71172 | 701 ft | 11 kts | 315° |
| 2026-04-23 10:33 | 35.38341 | -80.71205 | 701 ft | 12 kts | 7° |
| 2026-04-23 10:33 | 35.38389 | -80.71233 | 701 ft | 8 kts | 270° |
| 2026-04-23 10:33 | 35.38395 | -80.71284 | 701 ft | 6 kts | 284° |
| 2026-04-23 10:33 | 35.38400 | -80.71310 | 701 ft | 0 kts | 284° |
| 2026-04-23 10:34 | 35.38400 | -80.71311 | 701 ft | 0 kts | 284° |